createdAt,value
2018-07-02T00:00:31.725Z,100.00
2018-07-02T00:01:55.109Z,100.00
2018-07-02T00:03:22.472Z,100.00
2018-07-02T00:04:53.843Z,100.00
2018-07-02T00:06:21.146Z,100.00
2018-07-02T00:07:44.577Z,100.00
2018-07-02T00:09:15.807Z,100.00
2018-07-02T00:10:43.060Z,100.00
2018-07-02T00:12:06.404Z,100.00
2018-07-02T00:13:33.560Z,100.00
2018-07-02T00:15:01.211Z,100.00
2018-07-02T00:16:28.592Z,100.00
2018-07-02T00:17:56.050Z,100.00
2018-07-02T00:19:27.494Z,100.00
2018-07-02T00:20:50.813Z,100.00
2018-07-02T00:22:18.153Z,100.00
2018-07-02T00:23:49.394Z,100.00
2018-07-02T00:25:12.715Z,100.00
2018-07-02T00:26:44.017Z,100.00
2018-07-02T00:28:07.238Z,100.00
2018-07-02T00:29:34.701Z,100.00
2018-07-02T00:31:06.088Z,100.00
2018-07-02T00:32:29.360Z,100.00
2018-07-02T00:33:57.034Z,100.00
2018-07-02T00:35:24.358Z,100.00
2018-07-02T00:36:55.631Z,100.00
2018-07-02T00:38:19.107Z,100.00
2018-07-02T00:39:46.509Z,100.00
2018-07-02T00:41:13.874Z,100.00
2018-07-02T00:42:45.027Z,100.00
2018-07-02T00:44:08.559Z,100.00
2018-07-02T00:45:35.694Z,100.00
2018-07-02T00:47:02.934Z,100.00
2018-07-02T00:48:34.253Z,100.00
2018-07-02T00:49:57.625Z,100.00
2018-07-02T00:51:29.120Z,100.00
2018-07-02T00:52:52.499Z,100.00
2018-07-02T00:54:19.766Z,100.00
2018-07-02T00:55:46.946Z,100.00
2018-07-02T00:57:18.296Z,100.00
2018-07-02T00:58:41.584Z,100.00
2018-07-02T01:00:09.050Z,100.00
2018-07-02T01:01:36.348Z,100.00
2018-07-02T01:03:03.653Z,100.00
2018-07-02T01:04:31.070Z,100.00
2018-07-02T01:05:58.357Z,100.00
2018-07-02T01:07:29.597Z,100.00
2018-07-02T01:08:53.030Z,100.00
2018-07-02T01:10:24.161Z,100.00
2018-07-02T01:11:47.597Z,100.00
2018-07-02T01:13:14.946Z,100.00
2018-07-02T01:14:42.357Z,100.00
2018-07-02T01:16:13.702Z,100.00
2018-07-02T01:17:37.139Z,100.00
2018-07-02T01:19:04.520Z,100.00
2018-07-02T01:20:35.756Z,100.00
2018-07-02T01:21:58.762Z,100.00
2018-07-02T01:23:30.164Z,100.00
2018-07-02T01:24:53.501Z,100.00
2018-07-02T01:26:25.240Z,100.00
2018-07-02T01:27:48.402Z,100.00
2018-07-02T01:29:19.699Z,100.00
2018-07-02T01:30:47.015Z,100.00
2018-07-02T01:32:14.159Z,100.00
2018-07-02T01:33:37.467Z,100.00
2018-07-02T01:35:08.892Z,100.00
2018-07-02T01:36:32.053Z,100.00
2018-07-02T01:37:59.493Z,100.00
2018-07-02T01:39:26.508Z,100.00
2018-07-02T01:40:53.836Z,100.00
2018-07-02T01:42:21.065Z,100.00
2018-07-02T01:43:48.405Z,100.00
2018-07-02T01:45:19.558Z,100.00
2018-07-02T01:46:47.001Z,100.00
2018-07-02T01:48:10.390Z,100.00
2018-07-02T01:49:37.578Z,100.00
2018-07-02T01:51:05.100Z,100.00
2018-07-02T01:52:32.460Z,100.00
2018-07-02T01:54:03.880Z,100.00
2018-07-02T01:55:27.142Z,100.00
2018-07-02T01:56:58.621Z,100.00
2018-07-02T01:58:21.835Z,100.00
2018-07-02T01:59:49.217Z,100.00
2018-07-02T02:01:16.488Z,100.00
2018-07-02T02:02:47.907Z,100.00
2018-07-02T02:04:11.019Z,100.00
2018-07-02T02:05:42.495Z,100.00
2018-07-02T02:07:09.921Z,100.00
2018-07-02T02:08:37.400Z,100.00
2018-07-02T02:10:00.594Z,100.00
2018-07-02T02:11:28.221Z,100.00
2018-07-02T02:12:59.270Z,100.00
2018-07-02T02:14:22.700Z,100.00
2018-07-02T02:15:50.022Z,100.00
2018-07-02T02:17:17.317Z,100.00
2018-07-02T02:18:48.202Z,100.00
2018-07-02T02:20:11.504Z,100.00
2018-07-02T02:21:42.676Z,100.00
2018-07-02T02:23:05.951Z,100.00
2018-07-02T02:24:33.143Z,100.00
2018-07-02T02:26:00.459Z,100.00
2018-07-02T02:27:27.830Z,100.00
2018-07-02T02:28:55.160Z,100.00
2018-07-02T02:30:22.402Z,100.00
2018-07-02T02:31:49.874Z,100.00
2018-07-02T02:33:17.294Z,100.00
2018-07-02T02:34:48.699Z,100.00
2018-07-02T02:36:11.941Z,100.00
2018-07-02T02:37:43.285Z,100.00
2018-07-02T02:39:06.414Z,100.00
2018-07-02T02:40:33.883Z,100.00
2018-07-02T02:42:05.314Z,100.00
2018-07-02T02:43:33.409Z,100.00
2018-07-02T02:44:55.754Z,100.00
2018-07-02T02:46:22.841Z,100.00
2018-07-02T02:47:50.465Z,100.00
2018-07-02T02:49:17.698Z,100.00
2018-07-02T02:50:48.970Z,100.00
2018-07-02T02:52:16.426Z,100.00
2018-07-02T02:53:39.613Z,100.00
2018-07-02T02:55:06.973Z,100.00
2018-07-02T02:56:38.228Z,100.00
2018-07-02T02:58:01.583Z,100.00
2018-07-02T02:59:28.982Z,100.00
2018-07-02T03:01:00.064Z,100.00
2018-07-02T03:02:23.337Z,100.00
2018-07-02T03:03:50.767Z,100.00
2018-07-02T03:05:21.818Z,100.00
2018-07-02T03:06:45.220Z,100.00
2018-07-02T03:08:12.557Z,100.00
2018-07-02T03:09:43.759Z,100.00
2018-07-02T03:11:10.992Z,100.00
2018-07-02T03:12:34.391Z,100.00
2018-07-02T03:14:01.758Z,100.00
2018-07-02T03:15:29.114Z,100.00
2018-07-02T03:16:56.517Z,100.00
2018-07-02T03:18:24.184Z,100.00
2018-07-02T03:19:51.348Z,100.00
2018-07-02T03:21:18.762Z,100.00
2018-07-02T03:22:45.969Z,100.00
2018-07-02T03:24:13.386Z,100.00
2018-07-02T03:25:44.568Z,100.00
2018-07-02T03:27:07.877Z,100.00
2018-07-02T03:28:39.076Z,100.00
2018-07-02T03:30:02.239Z,100.00
2018-07-02T03:31:29.721Z,100.00
2018-07-02T03:32:57.086Z,100.00
2018-07-02T03:34:28.337Z,100.00
2018-07-02T03:35:55.828Z,100.00
2018-07-02T03:37:19.157Z,100.00
2018-07-02T03:38:46.478Z,100.00
2018-07-02T03:40:17.680Z,100.00
2018-07-02T03:41:45.158Z,100.00
2018-07-02T03:43:08.397Z,100.00
2018-07-02T03:44:35.910Z,100.00
2018-07-02T03:46:03.082Z,100.00
2018-07-02T03:47:34.318Z,100.00
2018-07-02T03:48:57.442Z,100.00
2018-07-02T03:50:24.777Z,100.00
2018-07-02T03:51:52.264Z,100.00
2018-07-02T03:53:19.400Z,100.00
2018-07-02T03:54:50.830Z,100.00
2018-07-02T03:56:13.976Z,100.00
2018-07-02T03:57:41.276Z,100.00
2018-07-02T03:59:08.661Z,100.00
2018-07-02T04:00:35.966Z,100.00
2018-07-02T04:02:03.512Z,100.00
2018-07-02T04:03:30.833Z,100.00
2018-07-02T04:05:02.160Z,100.00
2018-07-02T04:06:29.586Z,100.00
2018-07-02T04:07:52.962Z,100.00
2018-07-02T04:09:24.432Z,100.00
2018-07-02T04:10:51.459Z,100.00
2018-07-02T04:12:14.744Z,100.00
2018-07-02T04:13:41.995Z,100.00
2018-07-02T04:15:13.262Z,100.00
2018-07-02T04:16:40.565Z,100.00
2018-07-02T04:18:03.911Z,100.00
2018-07-02T04:19:34.845Z,100.00
2018-07-02T04:20:57.950Z,100.00
2018-07-02T04:22:29.323Z,100.00
2018-07-02T04:23:56.650Z,100.00
2018-07-02T04:25:20.211Z,100.00
2018-07-02T04:26:51.535Z,100.00
2018-07-02T04:28:18.945Z,100.00
2018-07-02T04:29:42.085Z,100.00
2018-07-02T04:31:13.299Z,100.00
2018-07-02T04:32:36.813Z,100.00
2018-07-02T04:34:07.839Z,100.00
2018-07-02T04:35:35.198Z,100.00
2018-07-02T04:37:02.089Z,100.00
2018-07-02T04:38:25.737Z,100.00
2018-07-02T04:39:53.045Z,100.00
2018-07-02T04:41:24.456Z,100.00
2018-07-02T04:42:47.630Z,100.00
2018-07-02T04:44:14.551Z,100.00
2018-07-02T04:45:41.966Z,100.00
2018-07-02T04:47:09.291Z,100.00
2018-07-02T04:48:36.656Z,100.00
2018-07-02T04:50:07.846Z,100.00
2018-07-02T04:51:35.277Z,100.00
2018-07-02T04:52:58.394Z,100.00
2018-07-02T04:54:29.803Z,100.00
2018-07-02T04:55:57.270Z,100.00
2018-07-02T04:57:20.575Z,100.00
2018-07-02T04:58:47.731Z,100.00
2018-07-02T05:00:14.843Z,100.00
2018-07-02T05:01:46.149Z,100.00
2018-07-02T05:03:13.365Z,100.00
2018-07-02T05:04:36.749Z,100.00
2018-07-02T05:06:07.888Z,100.00
2018-07-02T05:07:35.308Z,100.00
2018-07-02T05:08:58.372Z,100.00
2018-07-02T05:10:29.849Z,100.00
2018-07-02T05:11:52.947Z,100.00
2018-07-02T05:13:20.378Z,100.00
2018-07-02T05:14:47.756Z,100.00
2018-07-02T05:16:15.296Z,100.00
2018-07-02T05:17:42.662Z,100.00
2018-07-02T05:19:13.753Z,100.00
2018-07-02T05:20:37.134Z,100.00
2018-07-02T05:22:08.602Z,100.00
2018-07-02T05:23:35.600Z,100.00
2018-07-02T05:24:58.654Z,100.00
2018-07-02T05:26:26.125Z,100.00
2018-07-02T05:27:53.531Z,100.00
2018-07-02T05:29:20.810Z,100.00
2018-07-02T05:30:51.848Z,100.00
2018-07-02T05:32:19.309Z,100.00
2018-07-02T05:33:42.603Z,100.00
2018-07-02T05:35:13.683Z,100.00
2018-07-02T05:36:37.097Z,100.00
2018-07-02T05:38:08.332Z,100.00
2018-07-02T05:39:31.575Z,100.00
2018-07-02T05:40:58.963Z,100.00
2018-07-02T05:42:26.375Z,100.00
2018-07-02T05:43:58.104Z,100.00
2018-07-02T05:45:21.540Z,100.00
2018-07-02T05:46:49.171Z,100.00
2018-07-02T05:48:16.795Z,100.00
2018-07-02T05:49:44.279Z,100.00
2018-07-02T05:51:15.547Z,100.00
2018-07-02T05:52:38.608Z,100.00
2018-07-02T05:54:05.913Z,100.00
2018-07-02T05:55:37.422Z,100.00
2018-07-02T05:57:00.349Z,100.00
2018-07-02T05:58:27.957Z,100.00
2018-07-02T05:59:59.311Z,100.00
2018-07-02T06:01:26.783Z,100.00
2018-07-02T06:02:54.159Z,100.00
2018-07-02T06:04:17.662Z,100.00
2018-07-02T06:05:45.316Z,100.00
2018-07-02T06:07:12.480Z,100.00
2018-07-02T06:08:39.529Z,100.00
2018-07-02T06:10:06.727Z,98.66
2018-07-02T06:11:34.237Z,99.52
2018-07-02T06:13:01.758Z,95.96
2018-07-02T06:14:28.862Z,94.15
2018-07-02T06:15:56.085Z,94.30
2018-07-02T06:17:23.096Z,95.55
2018-07-02T06:18:50.669Z,94.58
2018-07-02T06:20:18.222Z,94.82
2018-07-02T06:21:45.526Z,94.47
2018-07-02T06:23:12.964Z,94.13
2018-07-02T06:24:40.501Z,91.13
2018-07-02T06:26:07.967Z,90.29
2018-07-02T06:27:35.658Z,90.64
2018-07-02T06:29:02.745Z,91.79
2018-07-02T06:30:34.480Z,92.72
2018-07-02T06:31:57.999Z,91.68
2018-07-02T06:33:25.570Z,92.72
2018-07-02T06:34:52.635Z,91.94
2018-07-02T06:36:19.949Z,91.20
2018-07-02T06:37:47.568Z,91.11
2018-07-02T06:39:19.121Z,83.91
2018-07-02T06:40:42.659Z,84.56
2018-07-02T06:42:09.850Z,82.12
2018-07-02T06:43:37.254Z,76.63
2018-07-02T06:45:04.977Z,77.72
2018-07-02T06:46:32.503Z,64.29
2018-07-02T06:48:00.314Z,60.58
2018-07-02T06:49:31.437Z,56.11
2018-07-02T06:50:59.074Z,50.94
2018-07-02T06:52:22.509Z,50.96
2018-07-02T06:53:50.139Z,48.89
2018-07-02T06:55:17.926Z,45.70
2018-07-02T06:56:49.321Z,46.09
2018-07-02T06:58:12.966Z,42.30
2018-07-02T06:59:40.435Z,43.40
2018-07-02T07:01:08.078Z,41.15
2018-07-02T07:02:39.603Z,41.66
2018-07-02T07:04:03.055Z,44.51
2018-07-02T07:05:30.760Z,45.09
2018-07-02T07:06:57.540Z,46.81
2018-07-02T07:08:25.035Z,45.42
2018-07-02T07:09:52.462Z,48.51
2018-07-02T07:11:23.973Z,48.86
2018-07-02T07:12:47.376Z,48.38
2018-07-02T07:14:19.772Z,48.37
2018-07-02T07:15:42.046Z,50.30
2018-07-02T07:17:13.249Z,49.08
2018-07-02T07:18:36.959Z,49.12
2018-07-02T07:20:04.575Z,50.38
2018-07-02T07:21:32.070Z,48.21
2018-07-02T07:23:03.530Z,48.33
2018-07-02T07:24:27.092Z,49.35
2018-07-02T07:25:54.705Z,48.52
2018-07-02T07:27:22.445Z,47.38
2018-07-02T07:28:49.950Z,47.38
2018-07-02T07:30:17.423Z,47.32
2018-07-02T07:31:48.589Z,46.48
2018-07-02T07:33:12.063Z,47.87
2018-07-02T07:34:39.574Z,48.07
2018-07-02T07:36:06.620Z,46.96
2018-07-02T07:37:38.209Z,49.73
2018-07-02T07:39:05.800Z,49.85
2018-07-02T07:40:29.463Z,50.53
2018-07-02T07:42:00.335Z,50.99
2018-07-02T07:43:27.641Z,52.34
2018-07-02T07:44:51.347Z,50.08
2018-07-02T07:46:18.794Z,50.83
2018-07-02T07:47:46.082Z,52.48
2018-07-02T07:49:13.416Z,55.15
2018-07-02T07:50:41.119Z,56.19
2018-07-02T07:52:08.077Z,58.85
2018-07-02T07:53:35.274Z,55.32
2018-07-02T07:55:02.688Z,55.68
2018-07-02T07:56:30.367Z,56.38
2018-07-02T07:57:57.522Z,53.88
2018-07-02T07:59:25.010Z,52.76
2018-07-02T08:00:56.577Z,53.93
2018-07-02T08:02:20.083Z,52.31
2018-07-02T08:03:47.540Z,55.05
2018-07-02T08:05:18.988Z,54.00
2018-07-02T08:06:42.281Z,54.07
2018-07-02T08:08:13.682Z,52.78
2018-07-02T08:09:37.055Z,54.89
2018-07-02T08:11:04.596Z,52.88
2018-07-02T08:12:36.396Z,52.94
2018-07-02T08:13:59.861Z,52.59
2018-07-02T08:15:31.352Z,53.14
2018-07-02T08:16:58.788Z,54.30
2018-07-02T08:18:22.443Z,52.82
2018-07-02T08:19:54.021Z,54.05
2018-07-02T08:21:17.450Z,54.54
2018-07-02T08:22:44.947Z,52.54
2018-07-02T08:24:12.396Z,52.13
2018-07-02T08:25:39.691Z,51.55
2018-07-02T08:27:07.035Z,51.43
2018-07-02T08:28:34.479Z,52.15
2018-07-02T08:30:02.034Z,51.31
2018-07-02T08:31:29.727Z,52.13
2018-07-02T08:33:01.156Z,51.28
2018-07-02T08:34:24.603Z,50.25
2018-07-02T08:35:51.984Z,52.03
2018-07-02T08:37:19.546Z,52.62
2018-07-02T08:38:46.972Z,49.51
2018-07-02T08:40:14.226Z,52.13
2018-07-02T08:41:41.771Z,51.22
2018-07-02T08:43:08.991Z,52.45
2018-07-02T08:44:36.250Z,53.38
2018-07-02T08:46:03.625Z,53.18
2018-07-02T08:47:35.005Z,51.40
2018-07-02T08:49:02.516Z,52.59
2018-07-02T08:50:26.164Z,53.05
2018-07-02T08:51:57.596Z,58.36
2018-07-02T08:53:21.231Z,58.74
2018-07-02T08:54:52.449Z,55.19
2018-07-02T08:56:15.842Z,55.36
2018-07-02T08:57:47.082Z,54.22
2018-07-02T08:59:10.459Z,54.47
2018-07-02T09:00:38.045Z,54.88
2018-07-02T09:02:09.411Z,54.59
2018-07-02T09:03:36.859Z,56.94
2018-07-02T09:04:59.862Z,54.17
2018-07-02T09:06:27.409Z,55.48
2018-07-02T09:07:55.023Z,54.92
2018-07-02T09:09:22.513Z,56.55
2018-07-02T09:10:50.082Z,58.14
2018-07-02T09:12:17.561Z,56.22
2018-07-02T09:13:45.001Z,55.07
2018-07-02T09:15:12.468Z,54.12
2018-07-02T09:16:40.024Z,54.97
2018-07-02T09:18:11.395Z,54.28
2018-07-02T09:19:34.870Z,53.43
2018-07-02T09:21:06.529Z,55.44
2018-07-02T09:22:30.118Z,54.09
2018-07-02T09:24:01.662Z,54.28
2018-07-02T09:25:24.821Z,53.92
2018-07-02T09:26:52.125Z,55.15
2018-07-02T09:28:23.844Z,54.65
2018-07-02T09:29:47.169Z,56.05
2018-07-02T09:31:14.625Z,54.80
2018-07-02T09:32:46.010Z,55.04
2018-07-02T09:34:13.403Z,54.39
2018-07-02T09:35:37.117Z,55.24
2018-07-02T09:37:04.693Z,54.77
2018-07-02T09:38:35.975Z,57.51
2018-07-02T09:39:59.700Z,53.84
2018-07-02T09:41:31.347Z,58.20
2018-07-02T09:42:54.605Z,54.42
2018-07-02T09:44:22.170Z,55.26
2018-07-02T09:45:49.718Z,54.86
2018-07-02T09:47:17.108Z,58.94
2018-07-02T09:48:44.557Z,54.96
2018-07-02T09:50:11.998Z,52.86
2018-07-02T09:51:39.506Z,53.00
2018-07-02T09:53:07.128Z,54.05
2018-07-02T09:54:38.768Z,52.98
2018-07-02T09:56:06.499Z,53.21
2018-07-02T09:57:33.985Z,51.70
2018-07-02T09:59:01.652Z,54.64
2018-07-02T10:00:25.312Z,51.07
2018-07-02T10:01:52.899Z,49.92
2018-07-02T10:03:20.250Z,52.38
2018-07-02T10:04:51.889Z,52.90
2018-07-02T10:06:15.350Z,52.48
2018-07-02T10:07:46.964Z,54.22
2018-07-02T10:09:10.393Z,52.22
2018-07-02T10:10:42.121Z,54.42
2018-07-02T10:12:05.355Z,54.25
2018-07-02T10:13:32.700Z,51.37
2018-07-02T10:15:00.396Z,52.52
2018-07-02T10:16:27.891Z,52.85
2018-07-02T10:17:55.518Z,53.09
2018-07-02T10:19:23.238Z,52.83
2018-07-02T10:20:54.825Z,51.96
2018-07-02T10:22:22.299Z,51.79
2018-07-02T10:23:45.659Z,52.11
2018-07-02T10:25:17.159Z,54.19
2018-07-02T10:26:40.525Z,51.47
2018-07-02T10:28:07.966Z,51.73
2018-07-02T10:29:39.535Z,52.94
2018-07-02T10:31:03.025Z,55.67
2018-07-02T10:32:34.044Z,52.10
2018-07-02T10:33:57.582Z,54.26
2018-07-02T10:35:29.206Z,54.36
2018-07-02T10:36:56.644Z,56.05
2018-07-02T10:38:24.122Z,53.21
2018-07-02T10:39:47.702Z,54.94
2018-07-02T10:41:19.252Z,53.30
2018-07-02T10:42:42.839Z,53.05
2018-07-02T10:44:10.285Z,53.63
2018-07-02T10:45:41.566Z,54.69
2018-07-02T10:47:05.100Z,53.53
2018-07-02T10:48:32.596Z,53.75
2018-07-02T10:50:00.144Z,55.48
2018-07-02T10:51:27.503Z,55.54
2018-07-02T10:52:55.036Z,54.77
2018-07-02T10:54:22.474Z,59.88
2018-07-02T10:55:53.954Z,57.63
2018-07-02T10:57:17.445Z,54.94
2018-07-02T10:58:45.055Z,52.80
2018-07-02T11:00:12.579Z,51.14
2018-07-02T11:01:39.828Z,48.73
2018-07-02T11:03:07.532Z,50.41
2018-07-02T11:04:35.036Z,52.35
2018-07-02T11:06:02.830Z,53.36
2018-07-02T11:07:30.444Z,51.15
2018-07-02T11:08:57.978Z,53.49
2018-07-02T11:10:25.468Z,53.53
2018-07-02T11:11:56.576Z,51.25
2018-07-02T11:13:20.099Z,52.00
2018-07-02T11:14:47.691Z,52.07
2018-07-02T11:16:16.414Z,50.01
2018-07-02T11:17:46.783Z,49.32
2018-07-02T11:19:10.283Z,50.18
2018-07-02T11:20:37.918Z,51.01
2018-07-02T11:22:05.664Z,51.29
2018-07-02T11:23:40.184Z,47.93
2018-07-02T11:25:00.863Z,48.03
2018-07-02T11:26:32.485Z,46.23
2018-07-02T11:28:00.172Z,46.40
2018-07-02T11:29:23.930Z,47.34
2018-07-02T11:30:51.303Z,47.30
2018-07-02T11:32:18.957Z,44.17
2018-07-02T11:33:46.451Z,46.41
2018-07-02T11:35:18.138Z,47.92
2018-07-02T11:36:41.522Z,45.74
2018-07-02T11:38:09.239Z,45.27
2018-07-02T11:39:40.633Z,48.55
2018-07-02T11:41:08.283Z,50.86
2018-07-02T11:42:32.003Z,49.02
2018-07-02T11:44:03.695Z,47.68
2018-07-02T11:45:27.420Z,45.36
2018-07-02T11:46:54.947Z,44.60
2018-07-02T11:48:22.625Z,44.63
2018-07-02T11:49:50.130Z,42.68
2018-07-02T11:51:21.942Z,40.29
2018-07-02T11:52:45.545Z,40.92
2018-07-02T11:54:17.182Z,40.96
2018-07-02T11:55:40.731Z,41.70
2018-07-02T11:57:08.234Z,42.19
2018-07-02T11:58:35.481Z,42.17
2018-07-02T12:00:03.262Z,40.66
2018-07-02T12:01:30.913Z,40.40
2018-07-02T12:02:58.542Z,40.33
2018-07-02T12:04:26.171Z,40.92
2018-07-02T12:05:53.864Z,43.99
2018-07-02T12:07:25.496Z,42.56
2018-07-02T12:08:49.171Z,41.31
2018-07-02T12:10:16.808Z,41.06
2018-07-02T12:11:44.372Z,41.52
2018-07-02T12:13:11.860Z,39.46
2018-07-02T12:14:39.522Z,41.23
2018-07-02T12:16:07.088Z,40.80
2018-07-02T12:17:38.619Z,40.67
2018-07-02T12:19:02.169Z,41.33
2018-07-02T12:20:29.884Z,42.37
2018-07-02T12:21:57.563Z,45.38
2018-07-02T12:23:25.423Z,47.10
2018-07-02T12:24:53.072Z,47.53
2018-07-02T12:26:20.773Z,49.35
2018-07-02T12:27:48.382Z,51.33
2018-07-02T12:29:16.061Z,52.82
2018-07-02T12:30:43.442Z,51.05
2018-07-02T12:32:11.230Z,47.27
2018-07-02T12:33:38.591Z,48.14
2018-07-02T12:35:06.171Z,48.95
2018-07-02T12:36:33.631Z,49.57
2018-07-02T12:38:01.309Z,50.39
2018-07-02T12:39:28.976Z,50.39
2018-07-02T12:40:56.632Z,50.08
2018-07-02T12:42:24.332Z,50.31
2018-07-02T12:43:51.978Z,49.29
2018-07-02T12:45:19.485Z,47.34
2018-07-02T12:46:46.865Z,46.05
2018-07-02T12:48:14.496Z,44.46
2018-07-02T12:49:41.916Z,44.57
2018-07-02T12:51:09.545Z,44.65
2018-07-02T12:52:37.229Z,43.43
2018-07-02T12:54:04.869Z,46.50
2018-07-02T12:55:36.354Z,42.92
2018-07-02T12:57:03.203Z,44.33
2018-07-02T12:58:30.848Z,42.40
2018-07-02T12:59:58.140Z,44.26
2018-07-02T13:01:21.782Z,44.15
2018-07-02T13:02:53.417Z,44.25
2018-07-02T13:04:21.052Z,43.32
2018-07-02T13:05:48.451Z,43.48
2018-07-02T13:07:12.120Z,45.38
2018-07-02T13:08:39.520Z,47.42
2018-07-02T13:10:07.047Z,47.05
2018-07-02T13:11:34.501Z,46.16
2018-07-02T13:13:06.106Z,45.98
2018-07-02T13:14:29.619Z,45.78
2018-07-02T13:16:01.387Z,47.51
2018-07-02T13:17:25.155Z,47.24
2018-07-02T13:18:52.717Z,47.79
2018-07-02T13:20:24.394Z,46.67
2018-07-02T13:21:47.664Z,46.85
2018-07-02T13:23:15.273Z,48.22
2018-07-02T13:24:42.712Z,47.12
2018-07-02T13:26:14.359Z,46.17
2018-07-02T13:27:37.013Z,46.77
2018-07-02T13:29:04.574Z,49.27
2018-07-02T13:30:35.905Z,47.25
2018-07-02T13:31:59.134Z,47.92
2018-07-02T13:33:26.697Z,52.30
2018-07-02T13:34:53.696Z,47.56
2018-07-02T13:36:25.444Z,48.38
2018-07-02T13:37:53.028Z,50.23
2018-07-02T13:39:16.595Z,50.20
2018-07-02T13:40:44.225Z,50.89
2018-07-02T13:42:11.839Z,48.02
2018-07-02T13:43:39.034Z,49.77
2018-07-02T13:45:06.759Z,47.28
2018-07-02T13:46:34.286Z,47.27
2018-07-02T13:48:01.961Z,47.93
2018-07-02T13:49:29.662Z,46.59
2018-07-02T13:50:57.246Z,46.67
2018-07-02T13:52:24.493Z,46.31
2018-07-02T13:53:51.631Z,45.67
2018-07-02T13:55:19.264Z,46.18
2018-07-02T13:56:46.588Z,45.09
2018-07-02T13:58:14.009Z,46.92
2018-07-02T13:59:41.521Z,45.31
2018-07-02T14:01:12.990Z,44.98
2018-07-02T14:02:40.515Z,43.31
2018-07-02T14:04:04.340Z,43.77
2018-07-02T14:05:32.008Z,43.81
2018-07-02T14:07:03.455Z,43.38
2018-07-02T14:08:27.084Z,44.01
2018-07-02T14:09:54.659Z,45.32
2018-07-02T14:11:22.282Z,45.95
2018-07-02T14:12:49.839Z,45.66
2018-07-02T14:14:21.109Z,44.62
2018-07-02T14:15:44.798Z,44.65
2018-07-02T14:17:12.105Z,44.64
2018-07-02T14:18:39.310Z,45.66
2018-07-02T14:20:06.718Z,47.10
2018-07-02T14:21:38.306Z,49.45
2018-07-02T14:23:01.946Z,48.45
2018-07-02T14:24:33.416Z,48.16
2018-07-02T14:25:56.957Z,48.61
2018-07-02T14:27:24.695Z,47.10
2018-07-02T14:28:52.389Z,46.31
2018-07-02T14:30:19.927Z,46.20
2018-07-02T14:31:47.213Z,45.88
2018-07-02T14:33:18.801Z,47.44
2018-07-02T14:34:42.404Z,48.09
2018-07-02T14:36:09.823Z,48.36
2018-07-02T14:37:37.412Z,49.64
2018-07-02T14:39:09.431Z,48.29
2018-07-02T14:40:32.994Z,48.52
2018-07-02T14:42:00.685Z,48.02
2018-07-02T14:43:28.220Z,46.57
2018-07-02T14:45:00.125Z,48.02
2018-07-02T14:46:27.307Z,46.84
2018-07-02T14:47:50.929Z,47.03
2018-07-02T14:49:22.437Z,47.12
2018-07-02T14:50:46.023Z,47.92
2018-07-02T14:52:13.695Z,48.80
2018-07-02T14:53:41.030Z,49.12
2018-07-02T14:55:12.766Z,50.70
2018-07-02T14:56:39.995Z,47.93
2018-07-02T14:58:03.607Z,48.77
2018-07-02T14:59:31.252Z,48.78
2018-07-02T15:00:58.838Z,47.68
2018-07-02T15:02:26.316Z,47.95
2018-07-02T15:03:57.990Z,45.91
2018-07-02T15:05:21.425Z,45.35
2018-07-02T15:06:53.172Z,45.58
2018-07-02T15:08:20.109Z,45.48
2018-07-02T15:09:43.760Z,46.15
2018-07-02T15:11:10.987Z,47.47
2018-07-02T15:12:42.407Z,46.43
2018-07-02T15:14:05.995Z,48.12
2018-07-02T15:15:33.798Z,46.74
2018-07-02T15:17:05.413Z,47.15
2018-07-02T15:18:33.117Z,46.76
2018-07-02T15:19:56.722Z,46.89
2018-07-02T15:21:23.981Z,48.25
2018-07-02T15:22:51.707Z,49.03
2018-07-02T15:24:19.261Z,48.47
2018-07-02T15:25:46.817Z,47.03
2018-07-02T15:27:14.395Z,47.71
2018-07-02T15:28:45.851Z,46.78
2018-07-02T15:30:09.431Z,46.83
2018-07-02T15:31:37.063Z,46.44
2018-07-02T15:33:04.567Z,46.23
2018-07-02T15:34:31.997Z,46.43
2018-07-02T15:35:59.535Z,46.71
2018-07-02T15:37:31.081Z,48.45
2018-07-02T15:38:54.691Z,46.71
2018-07-02T15:40:26.234Z,47.04
2018-07-02T15:41:50.040Z,47.81
2018-07-02T15:43:17.242Z,46.17
2018-07-02T15:44:44.687Z,46.16
2018-07-02T15:46:12.262Z,46.34
2018-07-02T15:47:39.743Z,47.13
2018-07-02T15:49:11.399Z,46.97
2018-07-02T15:50:38.973Z,47.19
2018-07-02T15:52:02.522Z,46.49
2018-07-02T15:53:30.045Z,46.80
2018-07-02T15:55:01.785Z,46.82
2018-07-02T15:56:29.206Z,46.91
2018-07-02T15:57:52.634Z,47.13
2018-07-02T15:59:24.182Z,47.11
2018-07-02T16:00:51.572Z,47.26
2018-07-02T16:02:15.184Z,47.20
2018-07-02T16:03:42.668Z,47.56
2018-07-02T16:05:10.345Z,47.76
2018-07-02T16:06:37.496Z,47.70
2018-07-02T16:08:04.955Z,48.31
2018-07-02T16:09:32.406Z,47.88
2018-07-02T16:10:59.885Z,46.89
2018-07-02T16:12:31.519Z,46.31
2018-07-02T16:13:54.629Z,46.05
2018-07-02T16:15:22.198Z,47.64
2018-07-02T16:16:49.785Z,48.21
2018-07-02T16:18:21.363Z,47.54
2018-07-02T16:19:48.765Z,47.15
2018-07-02T16:21:16.332Z,47.83
2018-07-02T16:22:39.807Z,49.00
2018-07-02T16:24:07.374Z,47.39
2018-07-02T16:25:39.002Z,46.04
2018-07-02T16:27:06.460Z,46.45
2018-07-02T16:28:29.997Z,46.56
2018-07-02T16:29:57.595Z,46.01
2018-07-02T16:31:24.939Z,46.20
2018-07-02T16:32:52.532Z,46.38
2018-07-02T16:34:20.243Z,47.72
2018-07-02T16:35:47.818Z,47.70
2018-07-02T16:37:15.130Z,46.57
2018-07-02T16:38:42.620Z,45.44
2018-07-02T16:40:09.969Z,46.58
2018-07-02T16:41:37.649Z,46.67
2018-07-02T16:43:05.220Z,46.64
2018-07-02T16:44:32.276Z,46.45
2018-07-02T16:45:59.511Z,46.94
2018-07-02T16:47:31.010Z,46.36
2018-07-02T16:48:58.641Z,46.79
2018-07-02T16:50:22.225Z,47.39
2018-07-02T16:51:49.590Z,47.05
2018-07-02T16:53:17.244Z,48.02
2018-07-02T16:54:44.688Z,48.25
2018-07-02T16:56:15.962Z,48.92
2018-07-02T16:57:43.274Z,48.67
2018-07-02T16:59:06.618Z,48.58
2018-07-02T17:00:34.253Z,49.13
2018-07-02T17:02:01.981Z,49.79
2018-07-02T17:03:33.422Z,51.35
2018-07-02T17:05:01.018Z,50.59
2018-07-02T17:06:24.657Z,48.68
2018-07-02T17:07:52.218Z,48.55
2018-07-02T17:09:23.768Z,49.06
2018-07-02T17:10:51.414Z,48.65
2018-07-02T17:12:18.915Z,48.75
2018-07-02T17:13:42.228Z,48.63
2018-07-02T17:15:13.487Z,48.62
2018-07-02T17:16:41.231Z,48.19
2018-07-02T17:18:04.817Z,49.03
2018-07-02T17:19:36.323Z,49.44
2018-07-02T17:20:59.846Z,49.34
2018-07-02T17:22:27.431Z,49.40
2018-07-02T17:23:55.041Z,49.33
2018-07-02T17:25:26.577Z,50.93
2018-07-02T17:26:50.147Z,50.45
2018-07-02T17:28:17.697Z,53.27
2018-07-02T17:29:49.089Z,51.75
2018-07-02T17:31:16.738Z,53.15
2018-07-02T17:32:40.289Z,51.85
2018-07-02T17:34:07.720Z,51.78
2018-07-02T17:35:35.389Z,49.48
2018-07-02T17:37:02.848Z,48.67
2018-07-02T17:38:30.417Z,49.39
2018-07-02T17:39:58.083Z,49.97
2018-07-02T17:41:25.695Z,51.15
2018-07-02T17:42:53.211Z,53.67
2018-07-02T17:44:20.692Z,53.96
2018-07-02T17:45:48.176Z,54.04
2018-07-02T17:47:19.828Z,57.01
2018-07-02T17:48:47.315Z,53.54
2018-07-02T17:50:10.784Z,54.35
2018-07-02T17:51:38.334Z,55.02
2018-07-02T17:53:09.417Z,53.79
2018-07-02T17:54:37.006Z,54.71
2018-07-02T17:56:00.397Z,53.18
2018-07-02T17:57:31.729Z,52.18
2018-07-02T17:58:59.517Z,53.85
2018-07-02T18:00:26.971Z,53.45
2018-07-02T18:01:50.609Z,54.60
2018-07-02T18:03:18.183Z,56.41
2018-07-02T18:04:45.836Z,53.67
2018-07-02T18:06:17.513Z,54.50
2018-07-02T18:07:40.940Z,53.67
2018-07-02T18:09:08.499Z,53.72
2018-07-02T18:10:40.176Z,55.59
2018-07-02T18:12:07.584Z,55.75
2018-07-02T18:13:35.189Z,55.59
2018-07-02T18:14:58.685Z,57.03
2018-07-02T18:16:26.433Z,56.05
2018-07-02T18:17:57.996Z,56.42
2018-07-02T18:19:21.547Z,56.40
2018-07-02T18:20:49.200Z,54.63
2018-07-02T18:22:16.543Z,55.08
2018-07-02T18:23:44.105Z,56.13
2018-07-02T18:25:11.607Z,55.05
2018-07-02T18:26:39.010Z,55.28
2018-07-02T18:28:06.470Z,56.14
2018-07-02T18:29:34.139Z,55.75
2018-07-02T18:31:05.706Z,57.33
2018-07-02T18:32:29.204Z,55.48
2018-07-02T18:33:56.939Z,55.89